Time;durP1;ratioP1;P1;durP2;ratioP2;P2;SDS_P1;SDS_P2;PMS_P1;PMS_P2;Temp;Humidity;BMP_temperature;BMP_pressure;BME280_temperature;BME280_humidity;BME280_pressure;Samples;Min_cycle;Max_cycle;Signal;HPM_P1;HPM_P2
2023/03/05 00:00:57;;;;;;;;;22.50;20.00;;;;;;;;4973134;28;11629;-80
2023/03/05 00:03:25;;;;;;;;;23.75;22.50;;;;;;;;4976289;28;11625;-79
2023/03/05 00:05:58;;;;;;;;;22.25;22.25;;;;;;;;4971563;28;11621;-79
2023/03/05 00:08:37;;;;;;;;;29.50;27.00;;;;;;;;4969559;28;11599;-81
2023/03/05 00:11:06;;;;;;;;;32.75;29.00;;;;;;;;4966662;28;11716;-81
2023/03/05 00:13:34;;;;;;;;;26.00;24.50;;;;;;;;4971780;28;11756;-81
2023/03/05 00:16:03;;;;;;;;;22.50;19.50;;;;;;;;4975786;28;11640;-80
2023/03/05 00:18:31;;;;;;;;;19.00;18.00;;;;;;;;4976106;28;11615;-80
2023/03/05 00:21:00;;;;;;;;;24.75;23.00;;;;;;;;4973291;28;11606;-79
2023/03/05 00:23:27;;;;;;;;;21.75;18.00;;;;;;;;4971298;28;11684;-80
2023/03/05 00:25:55;;;;;;;;;23.75;17.75;;;;;;;;4974117;28;11622;-80
2023/03/05 00:28:24;;;;;;;;;22.00;22.00;;;;;;;;4974360;28;11620;-79
2023/03/05 00:30:52;;;;;;;;;29.50;25.50;;;;;;;;4969865;28;11674;-80
2023/03/05 00:33:20;;;;;;;;;20.50;20.00;;;;;;;;4965200;28;12618;-81
2023/03/05 00:35:48;;;;;;;;;21.50;20.25;;;;;;;;4972019;28;12471;-79
2023/03/05 00:38:17;;;;;;;;;37.00;32.75;;;;;;;;4969726;28;11613;-80
2023/03/05 00:40:44;;;;;;;;;29.50;28.50;;;;;;;;4971712;28;11231;-79
2023/03/05 00:43:12;;;;;;;;;29.25;29.25;;;;;;;;4971022;28;11715;-79
2023/03/05 00:45:43;;;;;;;;;16.50;16.50;;;;;;;;4975561;28;12207;-79
2023/03/05 00:48:10;;;;;;;;;22.75;17.50;;;;;;;;4971320;28;11633;-80
2023/03/05 00:50:38;;;;;;;;;23.00;23.00;;;;;;;;4978161;28;11657;-79
2023/03/05 00:53:11;;;;;;;;;29.50;27.50;;;;;;;;4974210;28;11695;-79
2023/03/05 00:55:40;;;;;;;;;20.25;20.25;;;;;;;;4975827;28;11686;-80
2023/03/05 00:58:07;;;;;;;;;16.00;16.00;;;;;;;;4976999;28;11664;-80
2023/03/05 01:00:39;;;;;;;;;25.50;23.00;;;;;;;;4975807;28;11594;-80
2023/03/05 01:03:07;;;;;;;;;24.25;23.00;;;;;;;;4970676;28;11636;-80
2023/03/05 01:05:35;;;;;;;;;17.00;17.00;;;;;;;;4977654;28;11653;-80
2023/03/05 01:08:02;;;;;;;;;26.75;24.50;;;;;;;;4979309;28;11710;-79
2023/03/05 01:10:30;;;;;;;;;19.00;19.00;;;;;;;;4979366;28;11638;-79
2023/03/05 01:12:59;;;;;;;;;12.50;11.00;;;;;;;;4979731;28;11682;-80
2023/03/05 01:15:27;;;;;;;;;16.75;16.75;;;;;;;;4973640;28;11640;-80
2023/03/05 01:17:57;;;;;;;;;12.75;12.75;;;;;;;;4973729;28;11642;-80
2023/03/05 01:20:25;;;;;;;;;15.75;12.00;;;;;;;;4979012;28;11694;-80
2023/03/05 01:22:57;;;;;;;;;16.50;13.25;;;;;;;;4972376;28;11650;-80
2023/03/05 01:25:25;;;;;;;;;13.50;12.00;;;;;;;;4972463;28;11560;-80
2023/03/05 01:27:52;;;;;;;;;17.75;12.50;;;;;;;;4975596;28;11611;-80
2023/03/05 01:30:21;;;;;;;;;21.75;21.75;;;;;;;;4978830;28;11595;-80
2023/03/05 01:32:50;;;;;;;;;18.75;17.50;;;;;;;;4976905;28;11652;-80
2023/03/05 01:35:20;;;;;;;;;25.25;22.00;;;;;;;;4973766;28;11736;-79
2023/03/05 01:37:51;;;;;;;;;19.75;19.75;;;;;;;;4973375;28;11637;-81
2023/03/05 01:40:24;;;;;;;;;18.25;18.00;;;;;;;;4973680;28;11640;-81
2023/03/05 01:42:58;;;;;;;;;16.25;15.25;;;;;;;;4978197;28;11739;-80
2023/03/05 01:45:30;;;;;;;;;15.25;15.25;;;;;;;;4976168;28;11590;-81
2023/03/05 01:47:59;;;;;;;;;20.25;20.25;;;;;;;;4979377;28;11708;-81
2023/03/05 01:50:28;;;;;;;;;17.00;13.00;;;;;;;;4978711;28;12084;-80
2023/03/05 01:53:00;;;;;;;;;13.75;13.00;;;;;;;;4976051;28;11592;-80
2023/03/05 01:55:31;;;;;;;;;14.00;12.00;;;;;;;;4978972;28;11595;-79
2023/03/05 01:58:02;;;;;;;;;15.50;14.00;;;;;;;;4970967;28;11747;-80
2023/03/05 02:00:35;;;;;;;;;13.00;13.00;;;;;;;;4971967;28;11731;-79
2023/03/05 02:03:08;;;;;;;;;11.75;11.75;;;;;;;;4970090;28;11631;-80
2023/03/05 02:05:40;;;;;;;;;20.50;18.25;;;;;;;;4974294;28;11604;-80
2023/03/05 02:08:08;;;;;;;;;21.25;18.75;;;;;;;;4975782;28;11587;-81
2023/03/05 02:10:37;;;;;;;;;19.75;18.50;;;;;;;;4970955;28;11729;-79
2023/03/05 02:13:09;;;;;;;;;20.75;13.75;;;;;;;;4971007;28;11753;-79
2023/03/05 02:15:39;;;;;;;;;18.25;12.00;;;;;;;;4975583;28;11813;-80
2023/03/05 02:18:08;;;;;;;;;13.50;12.50;;;;;;;;4973643;28;11782;-80
2023/03/05 02:20:45;;;;;;;;;17.25;15.00;;;;;;;;4992059;28;11695;-81
2023/03/05 02:23:21;;;;;;;;;9.50;9.50;;;;;;;;4985890;28;11641;-80
2023/03/05 02:25:48;;;;;;;;;13.00;13.00;;;;;;;;4971536;28;11621;-80
2023/03/05 02:28:19;;;;;;;;;14.00;14.00;;;;;;;;4969488;28;11601;-80
2023/03/05 02:30:47;;;;;;;;;19.00;19.00;;;;;;;;4970084;28;11583;-82
2023/03/05 02:33:15;;;;;;;;;22.75;21.50;;;;;;;;4969814;28;12407;-80
2023/03/05 02:35:45;;;;;;;;;17.00;17.00;;;;;;;;4968354;28;11594;-81
2023/03/05 02:38:13;;;;;;;;;15.25;15.25;;;;;;;;4970958;28;11639;-82
2023/03/05 02:40:41;;;;;;;;;13.50;13.50;;;;;;;;4972103;28;11584;-80
2023/03/05 02:43:09;;;;;;;;;13.50;13.50;;;;;;;;4976964;28;11594;-80
2023/03/05 02:45:40;;;;;;;;;12.25;12.25;;;;;;;;4968299;28;11628;-80
2023/03/05 02:48:08;;;;;;;;;32.00;25.50;;;;;;;;4958555;28;11583;-80
2023/03/05 02:50:38;;;;;;;;;16.25;14.25;;;;;;;;4968415;28;11652;-80
2023/03/05 02:53:06;;;;;;;;;12.50;12.00;;;;;;;;4972352;28;11692;-81
2023/03/05 02:55:34;;;;;;;;;8.25;8.25;;;;;;;;4972201;28;11633;-80
2023/03/05 02:58:02;;;;;;;;;16.50;12.00;;;;;;;;4975299;28;11635;-81
2023/03/05 03:00:30;;;;;;;;;7.50;5.75;;;;;;;;4969662;28;11713;-81
2023/03/05 03:02:58;;;;;;;;;14.00;13.25;;;;;;;;4969648;28;11578;-79
2023/03/05 03:05:25;;;;;;;;;9.75;8.00;;;;;;;;4972472;28;11630;-80
2023/03/05 03:07:53;;;;;;;;;10.00;7.00;;;;;;;;4968299;28;11552;-81
2023/03/05 03:10:20;;;;;;;;;8.75;8.75;;;;;;;;4972193;28;11666;-80
2023/03/05 03:12:47;;;;;;;;;15.00;13.75;;;;;;;;4973455;28;11583;-81
2023/03/05 03:15:18;;;;;;;;;27.75;25.50;;;;;;;;4973786;28;11634;-80
2023/03/05 03:17:46;;;;;;;;;17.50;13.75;;;;;;;;4967192;28;11601;-80
2023/03/05 03:20:18;;;;;;;;;11.25;11.25;;;;;;;;4972304;28;12389;-81
2023/03/05 03:22:46;;;;;;;;;6.50;6.00;;;;;;;;4970095;28;13040;-80
2023/03/05 03:25:15;;;;;;;;;6.75;6.75;;;;;;;;4974056;28;12454;-80
2023/03/05 03:27:43;;;;;;;;;11.00;8.00;;;;;;;;4972456;28;11581;-81
2023/03/05 03:30:11;;;;;;;;;10.25;8.75;;;;;;;;4971461;28;12380;-81
2023/03/05 03:32:42;;;;;;;;;7.25;7.25;;;;;;;;4972503;28;11574;-81
2023/03/05 03:35:10;;;;;;;;;13.25;10.75;;;;;;;;4972026;28;11526;-81
2023/03/05 03:37:38;;;;;;;;;9.50;5.75;;;;;;;;4966480;28;11590;-81
2023/03/05 03:40:06;;;;;;;;;8.75;8.00;;;;;;;;4978573;28;11577;-81
2023/03/05 03:42:34;;;;;;;;;5.75;3.25;;;;;;;;4975398;28;11599;-80
2023/03/05 03:45:02;;;;;;;;;11.75;8.50;;;;;;;;4969207;28;11622;-80
2023/03/05 03:47:31;;;;;;;;;11.00;8.75;;;;;;;;4970010;28;11704;-80
2023/03/05 03:50:01;;;;;;;;;10.50;10.00;;;;;;;;4974177;28;11561;-81
2023/03/05 03:52:28;;;;;;;;;9.50;9.50;;;;;;;;4974213;28;12907;-80
2023/03/05 03:55:00;;;;;;;;;7.50;7.50;;;;;;;;4971699;28;11614;-80
2023/03/05 03:57:28;;;;;;;;;8.50;8.50;;;;;;;;4973044;28;11546;-80
2023/03/05 03:59:56;;;;;;;;;7.75;7.75;;;;;;;;4972855;28;11578;-80
2023/03/05 04:02:23;;;;;;;;;10.25;9.25;;;;;;;;4971914;28;11605;-81
2023/03/05 04:04:51;;;;;;;;;10.00;10.00;;;;;;;;4970066;28;11533;-81
2023/03/05 04:07:23;;;;;;;;;8.25;7.50;;;;;;;;4970978;28;11712;-81
2023/03/05 04:09:50;;;;;;;;;10.50;10.50;;;;;;;;4970942;28;11682;-80
2023/03/05 04:12:18;;;;;;;;;11.00;11.00;;;;;;;;4978281;28;12491;-81
2023/03/05 04:14:46;;;;;;;;;12.00;10.00;;;;;;;;4974186;28;11638;-80
2023/03/05 04:17:14;;;;;;;;;12.25;11.75;;;;;;;;4972168;28;11603;-80
2023/03/05 04:19:44;;;;;;;;;12.50;10.75;;;;;;;;4970457;28;11571;-81
2023/03/05 04:22:11;;;;;;;;;12.00;11.00;;;;;;;;4978637;28;12401;-81
2023/03/05 04:24:40;;;;;;;;;8.00;8.00;;;;;;;;4971336;28;11618;-80
2023/03/05 04:27:08;;;;;;;;;10.75;10.75;;;;;;;;4977840;28;11592;-80
2023/03/05 04:29:36;;;;;;;;;11.25;11.00;;;;;;;;4973945;28;12404;-81
2023/03/05 04:32:03;;;;;;;;;11.50;10.25;;;;;;;;4977314;28;11607;-80
2023/03/05 04:34:35;;;;;;;;;16.00;12.00;;;;;;;;4977864;28;11560;-80
2023/03/05 04:37:04;;;;;;;;;12.00;8.00;;;;;;;;4974313;28;11597;-81
2023/03/05 04:39:33;;;;;;;;;12.50;10.00;;;;;;;;4976017;28;11587;-80
2023/03/05 04:42:01;;;;;;;;;12.00;12.00;;;;;;;;4972589;28;11608;-80
2023/03/05 04:44:29;;;;;;;;;11.25;10.75;;;;;;;;4977357;28;11642;-79
2023/03/05 04:46:56;;;;;;;;;11.50;11.50;;;;;;;;4979877;28;11555;-80
2023/03/05 04:49:25;;;;;;;;;10.25;10.25;;;;;;;;4977104;28;11652;-80
2023/03/05 04:51:53;;;;;;;;;10.00;10.00;;;;;;;;4975276;28;11567;-80
2023/03/05 04:54:21;;;;;;;;;11.50;11.50;;;;;;;;4977026;28;11548;-80
2023/03/05 04:56:49;;;;;;;;;19.00;13.00;;;;;;;;4973758;28;11691;-80
2023/03/05 04:59:18;;;;;;;;;13.00;11.00;;;;;;;;4975272;28;11645;-80
2023/03/05 05:01:46;;;;;;;;;13.25;12.25;;;;;;;;4976915;28;11632;-81
2023/03/05 05:04:13;;;;;;;;;15.75;14.75;;;;;;;;4955852;28;11705;-81
2023/03/05 05:06:41;;;;;;;;;26.00;22.50;;;;;;;;4969314;28;11605;-81
2023/03/05 05:09:09;;;;;;;;;21.00;18.00;;;;;;;;4979076;28;11635;-81
2023/03/05 05:11:36;;;;;;;;;20.50;19.25;;;;;;;;4974310;28;11647;-82
2023/03/05 05:14:04;;;;;;;;;18.00;15.00;;;;;;;;4974292;28;11631;-81
2023/03/05 05:16:36;;;;;;;;;22.75;22.50;;;;;;;;4973244;28;11633;-81
2023/03/05 05:19:03;;;;;;;;;26.50;22.75;;;;;;;;4979231;28;11602;-81
2023/03/05 05:21:30;;;;;;;;;20.50;16.50;;;;;;;;4977085;28;12521;-81
2023/03/05 05:23:58;;;;;;;;;24.75;20.75;;;;;;;;4974318;28;11647;-79
2023/03/05 05:26:25;;;;;;;;;22.25;17.25;;;;;;;;4972092;28;11712;-80
2023/03/05 05:28:52;;;;;;;;;24.00;21.00;;;;;;;;4973549;28;11735;-79
2023/03/05 05:31:20;;;;;;;;;25.50;20.00;;;;;;;;4972724;28;11605;-80
2023/03/05 05:33:50;;;;;;;;;18.50;17.00;;;;;;;;4979034;28;11610;-79
2023/03/05 05:36:21;;;;;;;;;20.75;19.00;;;;;;;;4973468;28;11652;-79
2023/03/05 05:38:48;;;;;;;;;24.75;20.25;;;;;;;;4973428;28;11627;-79
2023/03/05 05:41:18;;;;;;;;;21.25;20.25;;;;;;;;4973514;28;11601;-81
2023/03/05 05:43:46;;;;;;;;;25.50;22.75;;;;;;;;4973780;28;12492;-80
2023/03/05 05:46:17;;;;;;;;;29.00;29.00;;;;;;;;4972330;28;11616;-80
2023/03/05 05:48:45;;;;;;;;;22.75;17.50;;;;;;;;4970880;28;11753;-81
2023/03/05 05:51:17;;;;;;;;;29.50;26.00;;;;;;;;4973270;28;11644;-80
2023/03/05 05:53:45;;;;;;;;;26.75;22.25;;;;;;;;4970694;28;11599;-80
2023/03/05 05:56:15;;;;;;;;;29.50;26.75;;;;;;;;4974010;28;11614;-80
2023/03/05 05:58:45;;;;;;;;;23.75;22.00;;;;;;;;4978677;28;11616;-80
2023/03/05 06:01:15;;;;;;;;;25.00;22.00;;;;;;;;4972626;28;11632;-80
2023/03/05 06:03:42;;;;;;;;;35.75;26.25;;;;;;;;4971757;28;11721;-79
2023/03/05 06:06:10;;;;;;;;;23.75;23.25;;;;;;;;4973456;28;12393;-79
2023/03/05 06:08:39;;;;;;;;;31.00;25.50;;;;;;;;4966982;28;11658;-80
2023/03/05 06:11:07;;;;;;;;;27.00;22.75;;;;;;;;4973182;28;11732;-81
2023/03/05 06:13:36;;;;;;;;;26.00;22.25;;;;;;;;4968829;28;12252;-80
2023/03/05 06:16:06;;;;;;;;;21.50;19.00;;;;;;;;4970608;28;11658;-81
2023/03/05 06:18:34;;;;;;;;;26.50;22.50;;;;;;;;4971984;28;11616;-80
2023/03/05 06:21:05;;;;;;;;;24.00;22.00;;;;;;;;4973766;28;11687;-80
2023/03/05 06:23:32;;;;;;;;;27.50;24.00;;;;;;;;4974924;28;12767;-80
2023/03/05 06:26:02;;;;;;;;;24.25;19.75;;;;;;;;4972230;28;11631;-80
2023/03/05 06:28:30;;;;;;;;;29.50;25.75;;;;;;;;4975651;28;11639;-81
2023/03/05 06:31:02;;;;;;;;;28.00;26.00;;;;;;;;4973375;28;11623;-83
2023/03/05 06:33:31;;;;;;;;;23.00;21.50;;;;;;;;4975254;28;11684;-80
2023/03/05 06:35:59;;;;;;;;;26.25;22.75;;;;;;;;4970129;28;11589;-75
2023/03/05 06:38:29;;;;;;;;;29.25;22.25;;;;;;;;4969028;28;11808;-77
2023/03/05 06:41:08;;;;;;;;;25.50;25.50;;;;;;;;4973593;28;11709;-75
2023/03/05 06:43:37;;;;;;;;;24.75;20.00;;;;;;;;4977305;28;11743;-74
2023/03/05 06:46:04;;;;;;;;;20.50;20.50;;;;;;;;4975433;28;11657;-73
2023/03/05 06:48:36;;;;;;;;;24.50;22.50;;;;;;;;4977571;28;11618;-79
2023/03/05 06:51:03;;;;;;;;;24.50;20.75;;;;;;;;4982925;28;11632;-76
2023/03/05 06:53:31;;;;;;;;;24.75;22.75;;;;;;;;4974994;28;11614;-77
2023/03/05 06:56:09;;;;;;;;;25.50;23.00;;;;;;;;4980767;28;11650;-82
2023/03/05 06:58:37;;;;;;;;;29.75;27.75;;;;;;;;4985418;28;11770;-80
2023/03/05 07:01:06;;;;;;;;;28.25;23.00;;;;;;;;4976391;28;11630;-79
2023/03/05 07:03:34;;;;;;;;;27.25;25.50;;;;;;;;4976294;28;11627;-81
2023/03/05 07:06:04;;;;;;;;;26.25;24.75;;;;;;;;4978531;28;12448;-83
2023/03/05 07:08:32;;;;;;;;;32.50;26.25;;;;;;;;4976205;28;11595;-80
2023/03/05 07:11:00;;;;;;;;;22.25;20.75;;;;;;;;4982325;28;11665;-77
2023/03/05 07:13:33;;;;;;;;;32.25;26.25;;;;;;;;4982930;28;11628;-74
2023/03/05 07:16:08;;;;;;;;;20.00;20.00;;;;;;;;4977472;28;11638;-76
2023/03/05 07:18:36;;;;;;;;;22.75;19.00;;;;;;;;4974009;28;11617;-75
2023/03/05 07:21:07;;;;;;;;;21.75;16.50;;;;;;;;4972032;28;11847;-75
2023/03/05 07:23:39;;;;;;;;;0.00;0.00;;;;;;;;4982261;28;11723;-79
2023/03/05 07:26:07;;;;;;;;;23.75;22.25;;;;;;;;4982895;28;11631;-80
2023/03/05 07:28:36;;;;;;;;;22.75;22.75;;;;;;;;4980532;28;11166;-79
2023/03/05 07:31:07;;;;;;;;;27.50;26.25;;;;;;;;4975876;28;11636;-78
2023/03/05 07:33:35;;;;;;;;;25.50;23.00;;;;;;;;4969424;28;11640;-81
2023/03/05 07:36:04;;;;;;;;;26.75;25.75;;;;;;;;4982284;28;11739;-79
2023/03/05 07:38:36;;;;;;;;;24.75;19.50;;;;;;;;4977693;28;11602;-81
2023/03/05 07:41:04;;;;;;;;;21.00;21.00;;;;;;;;4982967;28;11611;-78
2023/03/05 07:43:32;;;;;;;;;21.00;18.75;;;;;;;;4982825;28;12502;-79
2023/03/05 07:46:07;;;;;;;;;25.25;21.00;;;;;;;;4992742;28;11801;-78
2023/03/05 07:48:38;;;;;;;;;22.50;19.50;;;;;;;;4998772;28;12406;-77
2023/03/05 07:51:08;;;;;;;;;22.00;18.25;;;;;;;;4995821;28;11710;-78
2023/03/05 07:53:35;;;;;;;;;17.00;16.50;;;;;;;;4992067;28;11657;-78
2023/03/05 07:56:04;;;;;;;;;17.25;17.25;;;;;;;;4988719;28;11605;-76
2023/03/05 07:58:31;;;;;;;;;18.00;15.75;;;;;;;;4989545;28;11592;-78
2023/03/05 08:00:59;;;;;;;;;28.75;22.75;;;;;;;;4995240;28;11637;-80
2023/03/05 08:03:32;;;;;;;;;31.25;27.00;;;;;;;;4999021;28;11618;-79
2023/03/05 08:06:05;;;;;;;;;28.25;14.50;;;;;;;;4977788;28;12207;-81
2023/03/05 08:08:33;;;;;;;;;17.25;15.25;;;;;;;;4985584;28;11627;-81
2023/03/05 08:11:05;;;;;;;;;8.75;6.25;;;;;;;;4977675;28;11624;-81
2023/03/05 08:13:33;;;;;;;;;13.00;13.00;;;;;;;;4976919;28;11513;-80
2023/03/05 08:16:04;;;;;;;;;14.25;11.50;;;;;;;;4982591;28;11735;-79
2023/03/05 08:18:40;;;;;;;;;7.75;6.75;;;;;;;;4973730;28;11625;-75
2023/03/05 08:21:16;;;;;;;;;20.25;20.25;;;;;;;;4985282;28;11628;-77
2023/03/05 08:23:44;;;;;;;;;17.25;15.50;;;;;;;;4990160;28;12561;-77
2023/03/05 08:26:19;;;;;;;;;9.00;7.75;;;;;;;;4980810;28;11645;-79
2023/03/05 08:28:46;;;;;;;;;15.25;15.25;;;;;;;;4977199;28;11691;-76
2023/03/05 08:31:16;;;;;;;;;17.00;15.25;;;;;;;;4979086;28;11590;-74
2023/03/05 08:33:45;;;;;;;;;13.00;13.00;;;;;;;;4985882;28;11624;-76
2023/03/05 08:36:12;;;;;;;;;14.50;12.50;;;;;;;;4981850;28;11591;-76
2023/03/05 08:38:40;;;;;;;;;15.25;15.25;;;;;;;;4977383;28;11634;-74
2023/03/05 08:41:08;;;;;;;;;14.25;14.25;;;;;;;;4973499;28;11591;-79
2023/03/05 08:43:37;;;;;;;;;17.00;16.25;;;;;;;;4977804;28;11633;-75
2023/03/05 08:46:10;;;;;;;;;17.25;13.00;;;;;;;;4978096;28;11651;-75
2023/03/05 08:48:38;;;;;;;;;13.00;11.25;;;;;;;;4980035;28;11573;-78
2023/03/05 08:51:08;;;;;;;;;34.00;28.75;;;;;;;;4980322;28;11635;-76
2023/03/05 08:53:37;;;;;;;;;17.25;12.00;;;;;;;;4977960;28;11647;-75
2023/03/05 08:56:05;;;;;;;;;8.75;8.75;;;;;;;;4981767;28;11656;-76
2023/03/05 08:58:33;;;;;;;;;12.00;10.25;;;;;;;;4978380;28;11557;-77
2023/03/05 09:01:00;;;;;;;;;9.25;8.75;;;;;;;;4975401;28;11598;-76
2023/03/05 09:03:28;;;;;;;;;19.25;18.25;;;;;;;;4957031;28;11664;-74
2023/03/05 09:06:01;;;;;;;;;16.75;13.25;;;;;;;;4977752;28;11587;-72
2023/03/05 09:08:31;;;;;;;;;12.50;10.00;;;;;;;;4977877;28;11627;-74
2023/03/05 09:11:01;;;;;;;;;10.00;8.50;;;;;;;;4972896;28;11546;-74
2023/03/05 09:13:29;;;;;;;;;9.00;8.50;;;;;;;;4970257;28;11508;-75
2023/03/05 09:15:57;;;;;;;;;22.00;19.00;;;;;;;;4977387;28;11532;-75
2023/03/05 09:18:25;;;;;;;;;9.50;9.50;;;;;;;;4975913;28;11636;-73
2023/03/05 09:20:53;;;;;;;;;9.50;9.50;;;;;;;;4971509;28;11563;-74
2023/03/05 09:23:21;;;;;;;;;14.25;14.00;;;;;;;;4974863;28;11990;-74
2023/03/05 09:25:51;;;;;;;;;14.75;13.50;;;;;;;;4977356;28;11615;-74
2023/03/05 09:28:19;;;;;;;;;15.50;12.00;;;;;;;;4969865;28;11741;-74
2023/03/05 09:30:47;;;;;;;;;55.00;46.00;;;;;;;;4977403;28;11536;-75
2023/03/05 09:33:15;;;;;;;;;42.25;38.75;;;;;;;;4979129;28;12402;-74
2023/03/05 09:35:42;;;;;;;;;13.50;13.50;;;;;;;;4975456;28;11688;-74
2023/03/05 09:38:10;;;;;;;;;43.50;37.75;;;;;;;;4976026;28;11559;-74
2023/03/05 09:40:45;;;;;;;;;19.25;16.50;;;;;;;;4980118;28;11717;-75
2023/03/05 09:43:21;;;;;;;;;16.50;13.50;;;;;;;;4972289;28;12346;-73
2023/03/05 09:46:01;;;;;;;;;9.50;9.50;;;;;;;;4978719;28;11523;-75
2023/03/05 09:48:39;;;;;;;;;28.75;19.50;;;;;;;;4960435;28;11567;-75
2023/03/05 09:51:14;;;;;;;;;25.50;19.50;;;;;;;;4976396;28;11548;-73
2023/03/05 09:53:46;;;;;;;;;34.25;23.75;;;;;;;;4975635;28;11647;-75
2023/03/05 09:56:16;;;;;;;;;38.50;33.00;;;;;;;;4976753;28;11598;-74
2023/03/05 09:58:48;;;;;;;;;11.75;9.00;;;;;;;;4971432;28;11729;-75
2023/03/05 10:01:20;;;;;;;;;56.00;46.50;;;;;;;;4973963;28;11545;-76
2023/03/05 10:03:55;;;;;;;;;13.50;13.25;;;;;;;;4978522;28;11774;-76
2023/03/05 10:06:24;;;;;;;;;19.00;16.75;;;;;;;;4978350;28;11532;-75
2023/03/05 10:08:58;;;;;;;;;4.00;4.00;;;;;;;;4974179;28;11663;-75
2023/03/05 10:11:41;;;;;;;;;9.25;7.25;;;;;;;;4977103;28;11498;-76
2023/03/05 10:14:15;;;;;;;;;8.50;8.50;;;;;;;;4971906;28;11207;-75
2023/03/05 10:17:15;;;;;;;;;9.25;9.25;;;;;;;;4969092;28;11656;-75
2023/03/05 10:19:56;;;;;;;;;9.25;7.25;;;;;;;;4986463;28;11283;-76
2023/03/05 10:22:25;;;;;;;;;18.00;18.00;;;;;;;;4972742;28;11403;-75
2023/03/05 10:25:13;;;;;;;;;10.00;10.00;;;;;;;;4969804;28;11637;-74
2023/03/05 10:27:49;;;;;;;;;9.00;9.00;;;;;;;;4980574;28;11508;-75
2023/03/05 10:30:31;;;;;;;;;7.75;7.75;;;;;;;;4972745;28;11594;-75
2023/03/05 10:33:09;;;;;;;;;9.00;7.25;;;;;;;;4981671;28;11539;-75
2023/03/05 10:38:53;;;;;;;;;4.50;4.50;;;;;;;;4975707;28;12047;-75
2023/03/05 10:41:28;;;;;;;;;8.50;8.50;;;;;;;;4977943;28;11495;-75
2023/03/05 10:44:02;;;;;;;;;6.50;6.25;;;;;;;;4975520;28;11503;-74
2023/03/05 10:46:39;;;;;;;;;6.00;6.00;;;;;;;;4980362;28;11505;-80
2023/03/05 10:49:15;;;;;;;;;7.00;7.00;;;;;;;;4972104;28;11523;-72
2023/03/05 10:51:52;;;;;;;;;9.25;7.75;;;;;;;;4970308;28;12726;-70
2023/03/05 10:54:28;;;;;;;;;9.75;8.00;;;;;;;;4972679;28;11493;-73
2023/03/05 10:57:14;;;;;;;;;11.00;8.50;;;;;;;;4976144;28;11563;-72
2023/03/05 10:59:47;;;;;;;;;5.75;5.75;;;;;;;;4976920;28;11533;-76
2023/03/05 11:02:17;;;;;;;;;8.25;7.00;;;;;;;;4973453;28;11547;-76
2023/03/05 11:04:46;;;;;;;;;8.50;7.00;;;;;;;;4971525;28;11678;-73
2023/03/05 11:07:35;;;;;;;;;7.25;7.25;;;;;;;;4971270;28;11531;-74
2023/03/05 11:10:13;;;;;;;;;8.25;7.00;;;;;;;;4971704;28;11505;-74
2023/03/05 11:12:41;;;;;;;;;7.75;7.75;;;;;;;;4971905;28;11646;-75
2023/03/05 11:15:28;;;;;;;;;9.25;7.75;;;;;;;;4972345;28;11498;-75
2023/03/05 11:18:20;;;;;;;;;13.00;10.25;;;;;;;;4971413;28;11487;-76
2023/03/05 11:20:57;;;;;;;;;5.25;5.25;;;;;;;;4975939;28;11579;-76
2023/03/05 11:23:30;;;;;;;;;3.00;3.00;;;;;;;;4971570;28;11548;-74
2023/03/05 11:26:01;;;;;;;;;6.00;6.00;;;;;;;;4972157;28;11547;-75
2023/03/05 11:28:36;;;;;;;;;20.25;17.00;;;;;;;;4977447;28;11543;-74
2023/03/05 11:31:08;;;;;;;;;17.75;16.75;;;;;;;;4977524;28;11561;-75
2023/03/05 11:33:38;;;;;;;;;10.00;9.00;;;;;;;;4976215;28;12241;-75
2023/03/05 11:36:24;;;;;;;;;4.00;4.00;;;;;;;;4975941;28;12515;-74
2023/03/05 11:38:58;;;;;;;;;4.25;4.25;;;;;;;;4990446;28;11538;-73
2023/03/05 11:41:29;;;;;;;;;8.75;8.75;;;;;;;;4971634;28;11585;-74
2023/03/05 11:43:58;;;;;;;;;11.00;9.00;;;;;;;;4972955;28;11516;-74
2023/03/05 11:46:28;;;;;;;;;7.50;3.50;;;;;;;;4974841;28;11570;-76
2023/03/05 11:48:57;;;;;;;;;7.00;7.00;;;;;;;;4968745;28;11500;-74
2023/03/05 11:51:36;;;;;;;;;6.75;6.75;;;;;;;;4972540;28;11561;-76
2023/03/05 11:54:09;;;;;;;;;7.50;7.50;;;;;;;;4975938;28;12373;-75
2023/03/05 11:56:38;;;;;;;;;8.75;7.00;;;;;;;;4976939;28;11506;-75
2023/03/05 11:59:07;;;;;;;;;6.00;6.00;;;;;;;;4974429;28;11496;-75
2023/03/05 12:01:39;;;;;;;;;7.50;5.50;;;;;;;;4973039;28;11522;-72
2023/03/05 12:04:09;;;;;;;;;4.50;4.50;;;;;;;;4973322;28;12756;-74
2023/03/05 12:06:39;;;;;;;;;15.00;12.25;;;;;;;;4969608;28;11524;-72
2023/03/05 12:09:12;;;;;;;;;14.50;13.00;;;;;;;;4972512;28;11527;-74
2023/03/05 12:11:40;;;;;;;;;8.00;7.50;;;;;;;;4978247;28;11512;-74
2023/03/05 12:14:18;;;;;;;;;7.00;7.00;;;;;;;;4974780;28;11508;-74
2023/03/05 12:16:48;;;;;;;;;8.75;6.50;;;;;;;;4975698;28;11570;-73
2023/03/05 12:20:03;;;;;;;;;9.75;8.00;;;;;;;;4970557;28;11516;-74
2023/03/05 12:22:38;;;;;;;;;4.00;4.00;;;;;;;;4939787;28;11537;-72
2023/03/05 12:25:36;;;;;;;;;5.00;5.00;;;;;;;;4975568;28;11514;-73
2023/03/05 12:28:03;;;;;;;;;4.00;4.00;;;;;;;;4954339;28;11515;-73
2023/03/05 12:30:54;;;;;;;;;7.50;5.50;;;;;;;;4959442;28;11517;-75
2023/03/05 12:33:34;;;;;;;;;2.50;2.50;;;;;;;;4974871;28;11537;-75
2023/03/05 12:36:33;;;;;;;;;8.25;8.25;;;;;;;;4977118;28;11255;-73
2023/03/05 12:39:48;;;;;;;;;27.75;27.75;;;;;;;;4921525;29;11562;-73
2023/03/05 12:42:53;;;;;;;;;13.00;13.00;;;;;;;;4964817;28;11615;-73
2023/03/05 12:45:36;;;;;;;;;13.00;12.50;;;;;;;;4974441;28;11552;-77
2023/03/05 12:48:51;;;;;;;;;5.00;3.25;;;;;;;;4975842;28;12094;-72
2023/03/05 12:51:31;;;;;;;;;4.00;4.00;;;;;;;;4978847;28;11427;-75
2023/03/05 12:54:25;;;;;;;;;10.50;10.50;;;;;;;;4972983;28;11095;-73
2023/03/05 12:56:54;;;;;;;;;18.00;15.50;;;;;;;;4978234;28;11526;-76
2023/03/05 12:59:28;;;;;;;;;2.25;2.25;;;;;;;;4972121;28;11513;-74
2023/03/05 13:01:57;;;;;;;;;5.00;5.00;;;;;;;;4971666;28;10994;-72
2023/03/05 13:04:26;;;;;;;;;5.00;5.00;;;;;;;;4975947;28;11235;-73
2023/03/05 13:07:03;;;;;;;;;4.00;4.00;;;;;;;;4976646;28;11272;-71
2023/03/05 13:09:35;;;;;;;;;23.25;23.25;;;;;;;;4972622;28;11893;-71
2023/03/05 13:12:06;;;;;;;;;38.75;37.00;;;;;;;;4975289;28;11612;-70
2023/03/05 13:14:41;;;;;;;;;41.75;38.00;;;;;;;;4971538;28;11639;-71
2023/03/05 13:17:29;;;;;;;;;41.00;32.75;;;;;;;;4969227;28;11630;-72
2023/03/05 13:19:57;;;;;;;;;41.25;38.00;;;;;;;;4971553;28;12531;-72
2023/03/05 13:22:28;;;;;;;;;28.75;27.00;;;;;;;;4974285;28;11651;-74
2023/03/05 13:25:22;;;;;;;;;33.00;28.50;;;;;;;;4976560;28;12310;-72
2023/03/05 13:27:50;;;;;;;;;24.75;23.00;;;;;;;;4959588;28;11538;-73
2023/03/05 13:30:27;;;;;;;;;24.25;23.00;;;;;;;;4974309;28;11594;-72
2023/03/05 13:32:58;;;;;;;;;20.50;20.00;;;;;;;;4978865;28;12396;-73
2023/03/05 13:35:25;;;;;;;;;27.50;23.50;;;;;;;;4973100;28;12379;-74
2023/03/05 13:37:53;;;;;;;;;22.00;18.50;;;;;;;;4974492;28;11573;-78
2023/03/05 13:40:26;;;;;;;;;51.50;41.75;;;;;;;;4973045;28;11535;-73
2023/03/05 13:42:55;;;;;;;;;72.33;59.33;;;;;;;;4974422;28;11630;-74
2023/03/05 13:45:25;;;;;;;;;21.00;21.00;;;;;;;;4977732;28;12585;-74
2023/03/05 13:47:55;;;;;;;;;21.25;15.00;;;;;;;;4976586;28;11561;-73
2023/03/05 13:50:27;;;;;;;;;28.00;24.25;;;;;;;;4974217;28;11576;-74
2023/03/05 13:52:56;;;;;;;;;57.25;47.50;;;;;;;;4975981;28;11556;-74
2023/03/05 13:55:25;;;;;;;;;63.25;52.50;;;;;;;;4977197;28;11634;-75
2023/03/05 13:57:54;;;;;;;;;20.75;20.75;;;;;;;;4980520;28;11656;-74
2023/03/05 14:00:34;;;;;;;;;42.25;36.50;;;;;;;;4979880;28;11548;-75
2023/03/05 14:03:10;;;;;;;;;13.75;12.50;;;;;;;;4982956;28;11771;-72
2023/03/05 14:05:42;;;;;;;;;26.00;20.50;;;;;;;;4979560;28;11580;-74
2023/03/05 14:08:19;;;;;;;;;54.25;42.75;;;;;;;;4979033;28;11590;-74
2023/03/05 14:10:50;;;;;;;;;37.25;33.50;;;;;;;;4975116;28;11627;-74
2023/03/05 14:13:22;;;;;;;;;14.25;14.25;;;;;;;;4976190;28;11633;-74
2023/03/05 14:16:05;;;;;;;;;73.00;59.00;;;;;;;;4970154;28;12431;-74
2023/03/05 14:18:38;;;;;;;;;82.33;68.00;;;;;;;;4973868;28;11614;-75
2023/03/05 14:21:07;;;;;;;;;85.00;67.33;;;;;;;;4978269;28;8951;-74
2023/03/05 14:23:39;;;;;;;;;56.00;45.00;;;;;;;;4980055;28;8953;-73
2023/03/05 14:26:30;;;;;;;;;45.75;38.25;;;;;;;;4974269;28;11612;-80
2023/03/05 14:29:00;;;;;;;;;9.50;9.50;;;;;;;;4976499;28;11649;-74
2023/03/05 14:31:30;;;;;;;;;15.00;15.00;;;;;;;;4970166;28;11541;-73
2023/03/05 14:34:02;;;;;;;;;10.75;9.00;;;;;;;;4971582;28;11541;-73
2023/03/05 14:36:33;;;;;;;;;15.50;13.50;;;;;;;;4978557;28;11523;-75
2023/03/05 14:39:01;;;;;;;;;18.00;15.25;;;;;;;;4975639;28;11535;-73
2023/03/05 14:41:44;;;;;;;;;3.25;3.25;;;;;;;;4975013;28;11534;-73
2023/03/05 14:44:15;;;;;;;;;10.75;8.75;;;;;;;;4973449;28;11598;-76
2023/03/05 14:46:46;;;;;;;;;26.50;21.50;;;;;;;;4972016;28;11603;-73
2023/03/05 14:49:15;;;;;;;;;7.75;5.75;;;;;;;;4975605;28;11649;-74
2023/03/05 14:51:44;;;;;;;;;24.75;24.75;;;;;;;;4977432;28;11511;-75